createdAt,value
2022-12-11T00:02:33.791Z,23.20
2022-12-11T00:07:48.904Z,23.40
2022-12-11T00:12:52.482Z,22.38
2022-12-11T00:17:56.342Z,22.85
2022-12-11T00:22:59.686Z,23.13
2022-12-11T00:28:03.078Z,23.35
2022-12-11T00:48:15.942Z,21.75
2022-12-11T00:53:19.340Z,21.08
2022-12-11T00:58:22.951Z,20.15
2022-12-11T01:03:28.133Z,20.65
2022-12-11T01:13:42.824Z,20.55
2022-12-11T01:18:47.028Z,21.73
2022-12-11T01:23:51.572Z,19.48
2022-12-11T01:28:54.934Z,21.42
2022-12-11T01:49:15.591Z,20.60
2022-12-11T01:54:22.919Z,21.33
2022-12-11T01:59:29.584Z,22.45
2022-12-11T02:04:35.915Z,22.95
2022-12-11T02:09:42.816Z,22.73
2022-12-11T02:15:07.588Z,20.60
2022-12-11T02:20:41.847Z,21.80
2022-12-11T02:26:13.963Z,21.48
2022-12-11T02:31:42.660Z,20.77
2022-12-11T02:36:52.959Z,21.67
2022-12-11T02:41:58.436Z,21.90
2022-12-11T02:47:04.109Z,20.35
2022-12-11T02:52:11.491Z,20.05
2022-12-11T02:57:31.594Z,21.55
2022-12-11T03:02:35.502Z,21.10
2022-12-11T03:07:41.825Z,22.33
2022-12-11T03:12:53.401Z,23.13
2022-12-11T03:18:15.483Z,22.15
2022-12-11T03:23:26.075Z,22.55
2022-12-11T03:28:45.756Z,23.23
2022-12-11T03:33:53.562Z,22.90
2022-12-11T03:39:02.421Z,23.60
2022-12-11T03:44:07.396Z,24.80
2022-12-11T03:49:18.885Z,26.05
2022-12-11T03:54:24.762Z,26.63
2022-12-11T03:59:28.338Z,24.48
2022-12-11T04:04:38.841Z,25.38
2022-12-11T04:09:53.500Z,24.50
2022-12-11T04:14:56.902Z,24.50
2022-12-11T04:25:05.850Z,23.52
2022-12-11T04:30:14.840Z,23.92
2022-12-11T04:35:18.667Z,24.80
2022-12-11T04:40:23.884Z,23.77
2022-12-11T04:45:27.214Z,24.80
2022-12-11T04:55:33.586Z,21.35
2022-12-11T05:10:48.650Z,21.30
2022-12-11T05:15:53.286Z,24.40
2022-12-11T05:26:03.251Z,21.52
2022-12-11T05:31:12.260Z,22.65
2022-12-11T05:36:19.490Z,22.73
2022-12-11T05:41:25.389Z,22.73
2022-12-11T05:46:30.772Z,22.90
2022-12-11T05:51:35.074Z,21.33
2022-12-11T05:56:38.660Z,21.42
2022-12-11T06:01:50.966Z,22.33
2022-12-11T06:07:07.067Z,21.63
2022-12-11T06:12:10.406Z,23.55
2022-12-11T06:22:17.037Z,20.50
2022-12-11T06:27:20.450Z,21.70
2022-12-11T06:32:24.031Z,21.48
2022-12-11T06:37:27.371Z,20.83
2022-12-11T06:47:34.557Z,21.35
2022-12-11T06:52:38.072Z,19.83
2022-12-11T06:57:41.329Z,21.20
2022-12-11T07:02:45.098Z,20.55
2022-12-11T07:07:49.054Z,20.52
2022-12-11T07:12:55.780Z,20.08
2022-12-11T07:17:59.798Z,21.38
2022-12-11T07:23:03.076Z,21.67
2022-12-11T07:28:09.135Z,20.90
2022-12-11T07:33:17.692Z,21.42
2022-12-11T07:38:21.531Z,20.17
2022-12-11T07:43:25.105Z,19.52
2022-12-11T07:48:28.517Z,21.08
2022-12-11T07:53:33.480Z,21.02
2022-12-11T07:58:37.156Z,20.83
2022-12-11T08:03:40.526Z,20.75
2022-12-11T08:08:44.091Z,22.48
2022-12-11T08:13:47.611Z,21.17
2022-12-11T08:18:51.483Z,19.90
2022-12-11T08:23:55.670Z,21.10
2022-12-11T08:29:05.178Z,21.67
2022-12-11T08:34:09.202Z,21.20
2022-12-11T08:39:13.033Z,20.80
2022-12-11T08:44:17.127Z,19.60
2022-12-11T08:49:20.973Z,20.67
2022-12-11T08:54:24.268Z,20.27
2022-12-11T09:04:31.317Z,18.75
2022-12-11T09:09:35.039Z,18.75
2022-12-11T09:14:38.342Z,19.25
2022-12-11T09:24:47.461Z,19.30
2022-12-11T09:29:50.893Z,19.35
2022-12-11T09:34:54.732Z,19.17
2022-12-11T09:40:01.347Z,18.48
2022-12-11T09:45:15.615Z,19.67
2022-12-11T09:50:29.900Z,19.45
2022-12-11T09:55:41.549Z,18.73
2022-12-11T10:00:49.463Z,19.20
2022-12-11T10:06:04.218Z,19.02
2022-12-11T10:11:27.876Z,18.70
2022-12-11T10:16:55.027Z,18.45
2022-12-11T10:22:00.216Z,18.48
2022-12-11T10:27:16.478Z,19.20
2022-12-11T10:32:28.510Z,18.30
2022-12-11T10:37:41.402Z,18.27
2022-12-11T10:42:59.356Z,17.88
2022-12-11T10:48:09.830Z,18.08
2022-12-11T10:53:22.764Z,16.52
2022-12-11T11:03:33.333Z,16.15
2022-12-11T11:08:48.733Z,16.80
2022-12-11T11:13:52.668Z,16.05
2022-12-11T11:18:57.678Z,16.40
2022-12-11T11:24:02.083Z,15.77
2022-12-11T11:29:07.370Z,15.30
2022-12-11T11:34:20.881Z,15.73
2022-12-11T11:39:38.761Z,14.65
2022-12-11T11:45:05.852Z,14.30
2022-12-11T11:50:30.319Z,14.45
2022-12-11T11:55:36.469Z,12.90
2022-12-11T12:00:42.666Z,13.85
2022-12-11T12:05:54.326Z,14.48
2022-12-11T12:11:16.633Z,14.25
2022-12-11T12:16:52.845Z,13.07
2022-12-11T12:22:05.480Z,13.30
2022-12-11T12:27:54.267Z,11.90
2022-12-11T12:33:13.875Z,12.90
2022-12-11T12:38:43.447Z,12.80
2022-12-11T12:43:53.284Z,11.48
2022-12-11T12:48:59.580Z,12.15
2022-12-11T12:54:12.265Z,12.52
2022-12-11T12:59:27.848Z,11.18
2022-12-11T13:04:58.254Z,11.98
2022-12-11T13:10:07.649Z,10.55
2022-12-11T13:15:40.532Z,11.38
2022-12-11T13:21:35.537Z,11.68
2022-12-11T13:26:53.614Z,10.55
2022-12-11T13:32:29.221Z,10.30
2022-12-11T13:37:47.478Z,11.00
2022-12-11T13:43:07.402Z,9.68
2022-12-11T13:48:44.377Z,9.82
2022-12-11T13:54:22.535Z,9.27
2022-12-11T13:59:57.456Z,10.52
2022-12-11T14:05:27.872Z,7.40
2022-12-11T14:10:54.421Z,10.60
2022-12-11T14:15:58.105Z,10.52
2022-12-11T14:21:04.092Z,11.05
2022-12-11T14:26:23.811Z,10.45
2022-12-11T14:31:37.437Z,10.13
2022-12-11T14:36:42.596Z,10.85
2022-12-11T14:41:58.456Z,11.30
2022-12-11T14:47:14.692Z,11.05
2022-12-11T14:52:30.332Z,11.15
2022-12-11T14:57:34.757Z,10.70
2022-12-11T15:02:38.325Z,11.07
2022-12-11T15:07:44.875Z,11.63
2022-12-11T15:12:55.296Z,10.90
2022-12-11T15:18:33.270Z,10.82
2022-12-11T15:23:51.767Z,11.15
2022-12-11T15:29:01.160Z,11.18
2022-12-11T15:34:21.593Z,11.10
2022-12-11T15:39:25.118Z,11.63
2022-12-11T15:44:28.457Z,12.13
2022-12-11T15:49:32.994Z,12.68
2022-12-11T15:54:36.827Z,13.65
2022-12-11T15:59:40.393Z,14.30
2022-12-11T16:04:44.245Z,14.07
2022-12-11T16:09:47.668Z,14.73
2022-12-11T16:14:51.265Z,14.45
2022-12-11T16:19:54.661Z,15.55
2022-12-11T16:24:59.644Z,14.75
2022-12-11T16:30:12.509Z,15.18
2022-12-11T16:35:31.734Z,16.48
2022-12-11T16:40:35.318Z,15.02
2022-12-11T16:45:38.721Z,15.85
2022-12-11T16:50:43.072Z,17.55
2022-12-11T16:55:46.584Z,16.40
2022-12-11T17:00:50.656Z,17.98
2022-12-11T17:05:53.907Z,16.27
2022-12-11T17:10:57.201Z,15.00
2022-12-11T17:16:03.831Z,14.77
2022-12-11T17:21:16.482Z,14.20
2022-12-11T17:26:28.211Z,14.02
2022-12-11T17:31:47.333Z,14.48
2022-12-11T17:36:50.829Z,13.63
2022-12-11T17:42:05.383Z,13.85
2022-12-11T17:47:22.002Z,14.05
2022-12-11T17:52:29.628Z,13.75
2022-12-11T17:57:36.187Z,14.75
2022-12-11T18:02:39.645Z,13.77
2022-12-11T18:07:43.281Z,14.13
2022-12-11T18:12:55.033Z,13.45
2022-12-11T18:18:22.810Z,13.27
2022-12-11T18:23:40.910Z,14.75
2022-12-11T18:28:45.049Z,13.43
2022-12-11T18:33:48.718Z,13.82
2022-12-11T18:38:55.087Z,13.07
2022-12-11T18:44:10.219Z,13.52
2022-12-11T18:49:27.765Z,13.07
2022-12-11T18:54:31.604Z,13.52
2022-12-11T18:59:50.792Z,13.05
2022-12-11T19:05:08.268Z,13.23
2022-12-11T19:10:12.214Z,13.82
2022-12-11T19:15:19.462Z,12.32
2022-12-11T19:20:48.112Z,12.57
2022-12-11T19:25:49.565Z,13.93
2022-12-11T19:31:00.547Z,13.25
2022-12-11T19:36:22.608Z,13.30
2022-12-11T19:41:28.140Z,13.85
2022-12-11T19:46:33.040Z,13.13
2022-12-11T19:51:40.211Z,12.95
2022-12-11T19:56:51.871Z,13.07
2022-12-11T20:02:12.438Z,13.07
2022-12-11T20:07:16.187Z,12.88
2022-12-11T20:12:19.499Z,13.57
2022-12-11T20:17:23.159Z,13.93
2022-12-11T20:22:26.660Z,12.60
2022-12-11T20:27:30.163Z,12.43
2022-12-11T20:32:33.505Z,13.32
2022-12-11T20:37:47.405Z,14.60
2022-12-11T20:43:06.792Z,14.73
2022-12-11T20:48:11.707Z,13.82
2022-12-11T20:53:16.081Z,14.20
2022-12-11T20:58:19.819Z,14.23
2022-12-11T21:03:33.754Z,13.82
2022-12-11T21:08:54.794Z,14.18
2022-12-11T21:13:58.426Z,13.75
2022-12-11T21:19:02.277Z,13.40
2022-12-11T21:24:07.740Z,12.88
2022-12-11T21:29:11.444Z,13.52
2022-12-11T21:34:15.044Z,13.02
2022-12-11T21:39:18.517Z,12.10
2022-12-11T21:49:46.038Z,13.95
2022-12-11T21:54:49.397Z,13.27
2022-12-11T21:59:52.713Z,14.82
2022-12-11T22:04:55.986Z,13.65
2022-12-11T22:10:08.631Z,12.75
2022-12-11T22:15:26.559Z,14.05
2022-12-11T22:20:30.040Z,13.25
2022-12-11T22:35:40.830Z,14.27
2022-12-11T22:40:44.422Z,14.88
2022-12-11T22:45:55.280Z,15.50
2022-12-11T22:51:10.455Z,15.17
2022-12-11T22:56:21.131Z,13.80
2022-12-11T23:01:35.480Z,13.60
2022-12-11T23:06:45.886Z,15.15
2022-12-11T23:11:56.931Z,13.95
2022-12-11T23:17:01.928Z,14.15
2022-12-11T23:22:05.304Z,13.63
2022-12-11T23:27:09.067Z,14.80
2022-12-11T23:32:15.619Z,14.38
2022-12-11T23:37:19.126Z,13.98
2022-12-11T23:42:23.803Z,14.15
2022-12-11T23:47:27.062Z,14.60
2022-12-11T23:57:34.840Z,13.38
